Time;durP1;ratioP1;P1;durP2;ratioP2;P2;SDS_P1;SDS_P2;PMS_P1;PMS_P2;Temp;Humidity;BMP_temperature;BMP_pressure;BME280_temperature;BME280_humidity;BME280_pressure;Samples;Min_cycle;Max_cycle;Signal;HPM_P1;HPM_P2
2023/01/06 00:01:00;;;;;;;7.53;2.60;;;;;;;;;;2088125;28;20037;-79
2023/01/06 00:02:19;;;;;;;5.95;2.40;;;;;;;;;;2091394;28;20032;-79
2023/01/06 00:03:38;;;;;;;6.38;3.00;;;;;;;;;;2086736;28;20040;-79
2023/01/06 00:04:57;;;;;;;5.75;3.13;;;;;;;;;;2089412;28;20067;-79
2023/01/06 00:06:17;;;;;;;5.25;2.88;;;;;;;;;;2083862;28;20400;-79
2023/01/06 00:07:36;;;;;;;5.35;2.40;;;;;;;;;;2084069;28;20025;-79
2023/01/06 00:08:57;;;;;;;6.15;2.17;;;;;;;;;;2084203;28;20497;-78
2023/01/06 00:10:15;;;;;;;4.43;2.40;;;;;;;;;;2085985;28;20460;-79
2023/01/06 00:11:35;;;;;;;5.70;2.60;;;;;;;;;;2089848;28;20490;-79
2023/01/06 00:12:54;;;;;;;9.20;3.42;;;;;;;;;;2088815;28;20505;-79
2023/01/06 00:14:13;;;;;;;8.30;2.88;;;;;;;;;;2090377;28;20028;-78
2023/01/06 00:15:32;;;;;;;5.43;2.65;;;;;;;;;;2086515;28;20111;-80
2023/01/06 00:16:51;;;;;;;7.20;2.47;;;;;;;;;;2084036;28;20032;-79
2023/01/06 00:18:10;;;;;;;5.43;2.70;;;;;;;;;;2088327;28;20036;-79
2023/01/06 00:19:29;;;;;;;5.15;2.63;;;;;;;;;;2084794;28;20112;-80
2023/01/06 00:20:48;;;;;;;5.22;2.75;;;;;;;;;;2079912;28;20116;-80
2023/01/06 00:22:09;;;;;;;4.65;2.58;;;;;;;;;;2083456;28;20052;-79
2023/01/06 00:23:27;;;;;;;5.22;2.30;;;;;;;;;;2082372;28;20033;-79
2023/01/06 00:24:46;;;;;;;6.40;2.30;;;;;;;;;;2084564;28;20120;-79
2023/01/06 00:26:06;;;;;;;7.88;2.58;;;;;;;;;;2081508;28;20033;-79
2023/01/06 00:27:25;;;;;;;5.35;2.50;;;;;;;;;;2078161;28;20378;-79
2023/01/06 00:28:44;;;;;;;3.58;1.85;;;;;;;;;;2077935;28;20053;-79
2023/01/06 00:30:04;;;;;;;5.05;2.65;;;;;;;;;;2071944;28;20025;-80
2023/01/06 00:31:22;;;;;;;5.65;2.80;;;;;;;;;;2076759;28;20450;-79
2023/01/06 00:32:41;;;;;;;5.68;2.40;;;;;;;;;;2082497;28;20037;-79
2023/01/06 00:34:00;;;;;;;7.68;2.35;;;;;;;;;;2078683;28;20097;-79
2023/01/06 00:35:19;;;;;;;6.28;2.72;;;;;;;;;;2073153;28;20442;-79
2023/01/06 00:36:38;;;;;;;4.85;2.83;;;;;;;;;;2082138;28;20104;-79
2023/01/06 00:37:57;;;;;;;7.22;2.90;;;;;;;;;;2085063;28;20025;-79
2023/01/06 00:39:16;;;;;;;4.38;2.50;;;;;;;;;;2085742;28;20489;-80
2023/01/06 00:40:36;;;;;;;4.60;2.13;;;;;;;;;;2076067;28;20045;-80
2023/01/06 00:42:04;;;;;;;4.32;2.20;;;;;;;;;;2073362;28;20025;-80
2023/01/06 00:43:23;;;;;;;5.47;2.42;;;;;;;;;;2074063;28;20029;-80
2023/01/06 00:44:42;;;;;;;5.20;2.13;;;;;;;;;;2075343;28;20022;-79
2023/01/06 00:46:01;;;;;;;4.38;2.25;;;;;;;;;;2080542;28;20032;-80
2023/01/06 00:47:20;;;;;;;4.22;2.45;;;;;;;;;;2079550;28;20569;-79
2023/01/06 00:48:39;;;;;;;5.72;2.60;;;;;;;;;;2082736;28;20038;-79
2023/01/06 00:49:58;;;;;;;4.85;2.67;;;;;;;;;;2078905;28;20030;-79
2023/01/06 00:51:17;;;;;;;2.72;2.17;;;;;;;;;;2075145;28;20026;-80
2023/01/06 00:52:36;;;;;;;7.85;2.47;;;;;;;;;;2081585;28;20041;-80
2023/01/06 00:53:55;;;;;;;4.45;2.17;;;;;;;;;;2083977;28;20424;-79
2023/01/06 00:55:13;;;;;;;4.95;2.00;;;;;;;;;;2077271;28;20033;-82
2023/01/06 00:56:34;;;;;;;3.78;2.33;;;;;;;;;;2074449;28;20102;-82
2023/01/06 00:57:53;;;;;;;5.07;2.63;;;;;;;;;;2082470;28;20466;-82
2023/01/06 00:59:13;;;;;;;3.67;2.28;;;;;;;;;;2078020;28;20025;-82
2023/01/06 01:00:32;;;;;;;6.00;2.65;;;;;;;;;;2074770;28;20021;-83
2023/01/06 01:01:52;;;;;;;4.15;2.20;;;;;;;;;;2082676;28;20029;-83
2023/01/06 01:03:11;;;;;;;5.95;2.40;;;;;;;;;;2078233;28;20029;-82
2023/01/06 01:04:31;;;;;;;11.43;2.53;;;;;;;;;;2072878;28;20026;-82
2023/01/06 01:05:49;;;;;;;8.48;2.72;;;;;;;;;;2074813;28;20029;-82
2023/01/06 01:07:09;;;;;;;6.13;2.22;;;;;;;;;;2073888;28;20033;-82
2023/01/06 01:08:29;;;;;;;5.57;2.88;;;;;;;;;;2081604;28;20437;-82
2023/01/06 01:09:48;;;;;;;8.05;2.50;;;;;;;;;;2076199;28;20021;-82
2023/01/06 01:12:08;;;;;;;9.52;2.83;;;;;;;;;;2073042;28;20034;-82
2023/01/06 01:12:51;;;;;;;6.72;2.35;;;;;;;;;;2084093;28;20502;-82
2023/01/06 01:14:10;;;;;;;3.72;2.47;;;;;;;;;;2084240;28;20033;-82
2023/01/06 01:15:30;;;;;;;4.25;2.58;;;;;;;;;;2084069;28;20037;-83
2023/01/06 01:16:49;;;;;;;3.92;2.35;;;;;;;;;;2077562;28;20405;-83
2023/01/06 01:18:08;;;;;;;5.43;2.63;;;;;;;;;;2072472;28;20026;-82
2023/01/06 01:19:27;;;;;;;4.28;2.45;;;;;;;;;;2075062;28;20021;-82
2023/01/06 01:20:46;;;;;;;3.97;1.90;;;;;;;;;;2067155;28;20041;-82
2023/01/06 01:22:06;;;;;;;8.23;2.33;;;;;;;;;;2071113;28;20033;-81
2023/01/06 01:23:25;;;;;;;5.57;2.50;;;;;;;;;;2073980;28;20025;-81
2023/01/06 01:24:43;;;;;;;7.05;2.08;;;;;;;;;;2072514;28;20057;-81
2023/01/06 01:26:02;;;;;;;5.38;1.88;;;;;;;;;;2079535;28;20025;-81
2023/01/06 01:27:21;;;;;;;4.95;2.60;;;;;;;;;;2091444;28;20119;-82
2023/01/06 01:28:40;;;;;;;7.07;2.70;;;;;;;;;;2086147;28;20018;-81
2023/01/06 01:29:59;;;;;;;7.72;2.10;;;;;;;;;;2080635;28;20037;-82
2023/01/06 01:31:19;;;;;;;6.88;2.42;;;;;;;;;;2083974;28;20441;-81
2023/01/06 01:32:38;;;;;;;7.82;2.90;;;;;;;;;;2091746;28;20037;-81
2023/01/06 01:33:58;;;;;;;3.20;2.10;;;;;;;;;;2088269;28;20033;-81
2023/01/06 01:35:16;;;;;;;3.85;2.05;;;;;;;;;;2081921;28;20053;-82
2023/01/06 01:36:35;;;;;;;5.68;2.60;;;;;;;;;;2083517;28;20029;-82
2023/01/06 01:37:54;;;;;;;6.80;2.20;;;;;;;;;;2083196;28;20067;-82
2023/01/06 01:39:14;;;;;;;6.38;2.45;;;;;;;;;;2085491;28;20047;-82
2023/01/06 01:40:33;;;;;;;6.70;2.60;;;;;;;;;;2082395;28;20076;-82
2023/01/06 01:41:53;;;;;;;5.82;1.95;;;;;;;;;;2081173;28;20021;-81
2023/01/06 01:43:12;;;;;;;7.13;2.50;;;;;;;;;;2083384;28;20034;-82
2023/01/06 01:44:55;;;;;;;6.75;2.47;;;;;;;;;;2084732;28;20100;-81
2023/01/06 01:46:20;;;;;;;6.38;2.53;;;;;;;;;;2092900;28;20033;-81
2023/01/06 01:47:42;;;;;;;10.20;2.33;;;;;;;;;;2086634;28;20029;-82
2023/01/06 01:49:04;;;;;;;4.20;2.15;;;;;;;;;;2086114;28;20393;-81
2023/01/06 01:50:34;;;;;;;3.97;2.13;;;;;;;;;;2092045;28;20025;-81
2023/01/06 01:51:54;;;;;;;3.50;2.35;;;;;;;;;;2087383;28;20024;-80
2023/01/06 01:53:19;;;;;;;4.88;2.33;;;;;;;;;;2083873;28;20037;-81
2023/01/06 01:54:39;;;;;;;4.38;2.47;;;;;;;;;;2091355;28;20045;-80
2023/01/06 01:56:00;;;;;;;5.15;2.53;;;;;;;;;;2089076;28;20037;-81
2023/01/06 01:57:22;;;;;;;5.93;2.40;;;;;;;;;;2092671;28;20025;-81
2023/01/06 01:58:47;;;;;;;7.30;2.13;;;;;;;;;;2085753;28;20041;-81
2023/01/06 02:00:07;;;;;;;3.35;1.92;;;;;;;;;;2083935;28;20456;-81
2023/01/06 02:01:26;;;;;;;6.15;2.15;;;;;;;;;;2084538;28;20021;-81
2023/01/06 02:02:45;;;;;;;5.28;2.55;;;;;;;;;;2083654;28;20045;-81
2023/01/06 02:04:05;;;;;;;7.38;3.00;;;;;;;;;;2082319;28;20021;-80
2023/01/06 02:05:25;;;;;;;8.73;2.65;;;;;;;;;;2090011;28;20018;-80
2023/01/06 02:06:47;;;;;;;5.95;2.28;;;;;;;;;;2088415;28;20025;-81
2023/01/06 02:08:09;;;;;;;5.93;2.38;;;;;;;;;;2091677;28;20037;-81
2023/01/06 02:09:32;;;;;;;4.82;1.98;;;;;;;;;;2093703;28;20033;-81
2023/01/06 02:10:51;;;;;;;9.70;2.38;;;;;;;;;;2086874;28;20138;-82
2023/01/06 02:12:10;;;;;;;4.57;2.00;;;;;;;;;;2084200;28;20032;-81
2023/01/06 02:13:29;;;;;;;5.47;2.03;;;;;;;;;;2091210;28;20036;-81
2023/01/06 02:14:48;;;;;;;3.78;2.20;;;;;;;;;;2086517;28;20025;-81
2023/01/06 02:16:13;;;;;;;9.73;2.42;;;;;;;;;;2085199;28;20442;-81
2023/01/06 02:17:32;;;;;;;6.43;2.75;;;;;;;;;;2085117;28;20676;-81
2023/01/06 02:19:18;;;;;;;4.80;2.30;;;;;;;;;;2086142;28;20029;-82
2023/01/06 02:20:45;;;;;;;8.05;2.28;;;;;;;;;;2088254;28;20100;-80
2023/01/06 02:22:28;;;;;;;4.47;2.33;;;;;;;;;;2081911;28;20417;-81
2023/01/06 02:24:05;;;;;;;7.07;2.28;;;;;;;;;;2093816;28;20044;-80
2023/01/06 02:25:24;;;;;;;10.77;2.65;;;;;;;;;;2087180;28;20109;-79
2023/01/06 02:27:01;;;;;;;8.98;3.25;;;;;;;;;;2090036;28;20040;-81
2023/01/06 02:28:23;;;;;;;6.03;2.50;;;;;;;;;;2093814;28;20025;-80
2023/01/06 02:30:01;;;;;;;7.75;2.67;;;;;;;;;;2088641;28;20516;-80
2023/01/06 02:31:32;;;;;;;6.88;2.58;;;;;;;;;;2093124;28;20056;-81
2023/01/06 02:33:15;;;;;;;7.55;2.60;;;;;;;;;;2087081;28;20037;-80
2023/01/06 02:34:55;;;;;;;6.68;2.97;;;;;;;;;;2089567;28;20033;-82
2023/01/06 02:36:32;;;;;;;4.90;2.42;;;;;;;;;;2092743;28;20024;-81
2023/01/06 02:38:02;;;;;;;5.72;2.58;;;;;;;;;;2088817;28;20029;-79
2023/01/06 02:39:36;;;;;;;5.03;2.53;;;;;;;;;;2091839;28;20108;-79
2023/01/06 02:41:02;;;;;;;3.78;2.40;;;;;;;;;;2092454;28;20048;-78
2023/01/06 02:42:27;;;;;;;5.75;2.30;;;;;;;;;;2087928;28;20513;-79
2023/01/06 02:44:04;;;;;;;5.88;2.38;;;;;;;;;;2085746;28;20437;-79
2023/01/06 02:45:35;;;;;;;6.18;2.65;;;;;;;;;;2084721;28;20401;-79
2023/01/06 02:46:57;;;;;;;6.80;2.67;;;;;;;;;;2087749;28;20033;-79
2023/01/06 02:48:19;;;;;;;5.72;1.98;;;;;;;;;;2083331;28;20482;-79
2023/01/06 02:49:44;;;;;;;6.50;2.60;;;;;;;;;;2082254;28;20044;-79
2023/01/06 02:51:06;;;;;;;4.65;2.80;;;;;;;;;;2082669;28;20025;-80
2023/01/06 02:52:44;;;;;;;8.55;2.78;;;;;;;;;;2085373;28;20585;-79
2023/01/06 02:54:22;;;;;;;5.18;2.60;;;;;;;;;;2083734;28;20037;-78
2023/01/06 02:55:40;;;;;;;7.85;2.50;;;;;;;;;;2084824;28;20041;-79
2023/01/06 02:57:14;;;;;;;6.82;3.20;;;;;;;;;;2081262;28;20037;-79
2023/01/06 02:58:48;;;;;;;7.97;3.08;;;;;;;;;;2085576;28;20037;-80
2023/01/06 03:00:07;;;;;;;7.97;3.22;;;;;;;;;;2086104;28;20025;-80
2023/01/06 03:01:32;;;;;;;5.32;2.20;;;;;;;;;;2082091;28;20032;-80
2023/01/06 03:02:56;;;;;;;6.28;2.42;;;;;;;;;;2083834;28;20041;-80
2023/01/06 03:04:17;;;;;;;7.15;2.47;;;;;;;;;;2082493;28;20033;-78
2023/01/06 03:05:36;;;;;;;7.78;2.25;;;;;;;;;;2083634;28;20029;-80
2023/01/06 03:06:56;;;;;;;5.00;2.33;;;;;;;;;;2083784;28;20033;-79
2023/01/06 03:08:20;;;;;;;6.72;2.45;;;;;;;;;;2081471;28;20068;-80
2023/01/06 03:09:39;;;;;;;4.88;2.45;;;;;;;;;;2082755;28;20048;-80
2023/01/06 03:10:59;;;;;;;3.70;2.78;;;;;;;;;;2084440;28;20026;-80
2023/01/06 03:12:28;;;;;;;5.90;2.33;;;;;;;;;;2075408;28;20026;-80
2023/01/06 03:14:09;;;;;;;7.93;2.88;;;;;;;;;;2081418;28;20096;-79
2023/01/06 03:15:28;;;;;;;3.88;2.33;;;;;;;;;;2084990;28;20127;-79
2023/01/06 03:16:47;;;;;;;9.13;2.88;;;;;;;;;;2090660;28;20065;-79
2023/01/06 03:18:06;;;;;;;7.82;2.40;;;;;;;;;;2089283;28;20045;-80
2023/01/06 03:19:25;;;;;;;4.80;2.25;;;;;;;;;;2092527;28;20040;-80
2023/01/06 03:20:46;;;;;;;6.60;2.13;;;;;;;;;;2094180;28;20036;-79
2023/01/06 03:22:07;;;;;;;5.07;2.72;;;;;;;;;;2093298;28;20044;-79
2023/01/06 03:23:26;;;;;;;5.35;2.40;;;;;;;;;;2085034;28;20057;-80
2023/01/06 03:24:45;;;;;;;2.15;1.92;;;;;;;;;;2090682;28;20056;-80
2023/01/06 03:26:04;;;;;;;6.10;2.63;;;;;;;;;;2092102;28;20029;-80
2023/01/06 03:27:24;;;;;;;4.32;2.45;;;;;;;;;;2087548;28;20076;-80
2023/01/06 03:28:44;;;;;;;4.35;2.60;;;;;;;;;;2079446;28;20501;-80
2023/01/06 03:30:07;;;;;;;5.50;2.15;;;;;;;;;;2081206;28;20104;-80
2023/01/06 03:31:32;;;;;;;6.85;2.50;;;;;;;;;;2088136;28;20021;-80
2023/01/06 03:32:59;;;;;;;5.80;2.90;;;;;;;;;;2081021;28;20025;-80
2023/01/06 03:34:38;;;;;;;5.18;2.28;;;;;;;;;;2086780;28;20108;-80
2023/01/06 03:36:23;;;;;;;4.70;2.67;;;;;;;;;;2077417;28;20510;-80
2023/01/06 03:38:01;;;;;;;4.32;2.88;;;;;;;;;;2088797;28;20037;-80
2023/01/06 03:39:26;;;;;;;7.00;2.83;;;;;;;;;;2090908;28;20080;-80
2023/01/06 03:40:48;;;;;;;7.00;3.10;;;;;;;;;;2089685;28;20017;-80
2023/01/06 03:44:09;;;;;;;5.75;2.97;;;;;;;;;;2089021;28;20029;-80
2023/01/06 03:45:37;;;;;;;7.53;2.85;;;;;;;;;;2080975;28;20348;-79
2023/01/06 03:47:01;;;;;;;8.75;3.05;;;;;;;;;;2075410;28;20430;-80
2023/01/06 03:48:29;;;;;;;5.30;2.70;;;;;;;;;;2084109;28;20428;-79
2023/01/06 03:50:06;;;;;;;5.97;2.75;;;;;;;;;;2076575;28;20021;-79
2023/01/06 03:51:44;;;;;;;9.43;2.92;;;;;;;;;;2080032;28;20030;-79
2023/01/06 03:53:33;;;;;;;9.25;3.13;;;;;;;;;;2087735;28;20037;-79
2023/01/06 03:54:52;;;;;;;10.77;3.05;;;;;;;;;;2066815;28;20054;-80
2023/01/06 03:56:17;;;;;;;9.82;2.85;;;;;;;;;;2078112;28;20033;-79
2023/01/06 03:57:38;;;;;;;8.93;2.88;;;;;;;;;;2079361;28;20057;-79
2023/01/06 03:58:59;;;;;;;7.15;3.17;;;;;;;;;;2077349;28;20025;-80
2023/01/06 04:00:23;;;;;;;12.18;2.90;;;;;;;;;;2077585;28;20048;-79
2023/01/06 04:01:43;;;;;;;6.53;2.88;;;;;;;;;;2077878;28;20029;-80
2023/01/06 04:03:02;;;;;;;3.22;2.60;;;;;;;;;;2085633;28;20069;-79
2023/01/06 04:04:21;;;;;;;5.75;2.72;;;;;;;;;;2079259;28;20018;-79
2023/01/06 04:05:40;;;;;;;8.05;2.83;;;;;;;;;;2083858;28;20507;-80
2023/01/06 04:06:59;;;;;;;7.78;2.97;;;;;;;;;;2080570;28;20025;-80
2023/01/06 04:08:18;;;;;;;6.72;2.67;;;;;;;;;;2085695;28;20486;-79
2023/01/06 04:09:36;;;;;;;6.63;2.22;;;;;;;;;;2079361;28;20041;-80
2023/01/06 04:10:55;;;;;;;7.63;2.30;;;;;;;;;;2086109;28;20112;-80
2023/01/06 04:13:52;;;;;;;8.35;2.83;;;;;;;;;;2085995;28;20147;-78
2023/01/06 04:15:13;;;;;;;5.05;2.50;;;;;;;;;;2081650;28;20038;-80
2023/01/06 04:16:32;;;;;;;7.88;2.75;;;;;;;;;;2085245;28;20032;-78
2023/01/06 04:17:51;;;;;;;11.80;2.92;;;;;;;;;;2078938;28;20029;-80
2023/01/06 04:19:10;;;;;;;6.90;2.90;;;;;;;;;;2082723;28;20081;-80
2023/01/06 04:20:29;;;;;;;3.58;2.75;;;;;;;;;;2080972;28;20041;-80
2023/01/06 04:21:48;;;;;;;6.82;3.03;;;;;;;;;;2079461;28;20034;-79
2023/01/06 04:23:07;;;;;;;6.13;3.15;;;;;;;;;;2079215;28;20506;-80
2023/01/06 04:24:27;;;;;;;6.68;2.45;;;;;;;;;;2076834;28;20034;-79
2023/01/06 04:25:46;;;;;;;10.02;3.03;;;;;;;;;;2075152;28;20061;-80
2023/01/06 04:27:05;;;;;;;7.30;2.80;;;;;;;;;;2082523;28;20041;-79
2023/01/06 04:28:24;;;;;;;6.85;2.65;;;;;;;;;;2085202;28;20033;-79
2023/01/06 04:29:43;;;;;;;5.15;2.15;;;;;;;;;;2090731;28;20021;-80
2023/01/06 04:31:02;;;;;;;6.55;2.78;;;;;;;;;;2084595;28;20451;-79
2023/01/06 04:32:21;;;;;;;6.13;2.83;;;;;;;;;;2089826;28;20028;-80
2023/01/06 04:33:40;;;;;;;7.20;2.50;;;;;;;;;;2093014;28;20025;-80
2023/01/06 04:34:59;;;;;;;5.57;2.70;;;;;;;;;;2087927;28;20244;-80
2023/01/06 04:36:19;;;;;;;5.25;2.63;;;;;;;;;;2090766;28;20025;-79
2023/01/06 04:37:38;;;;;;;5.75;2.67;;;;;;;;;;2090243;28;20516;-80
2023/01/06 04:38:57;;;;;;;5.63;2.40;;;;;;;;;;2092624;28;20041;-80
2023/01/06 04:40:16;;;;;;;4.13;2.50;;;;;;;;;;2084917;28;20115;-80
2023/01/06 04:41:35;;;;;;;5.82;3.05;;;;;;;;;;2090789;28;20401;-80
2023/01/06 04:43:03;;;;;;;7.35;2.60;;;;;;;;;;2086199;28;20530;-80
2023/01/06 04:44:22;;;;;;;7.57;2.58;;;;;;;;;;2084996;28;20060;-80
2023/01/06 04:45:41;;;;;;;6.22;2.20;;;;;;;;;;2081224;28;20087;-80
2023/01/06 04:47:00;;;;;;;4.47;2.40;;;;;;;;;;2084721;28;20037;-79
2023/01/06 04:48:19;;;;;;;4.30;2.00;;;;;;;;;;2083837;28;20095;-80
2023/01/06 04:49:38;;;;;;;4.85;2.42;;;;;;;;;;2088922;28;20093;-80
2023/01/06 04:51:04;;;;;;;7.03;2.65;;;;;;;;;;2087955;28;20025;-80
2023/01/06 04:52:23;;;;;;;10.77;2.92;;;;;;;;;;2085088;28;20111;-80
2023/01/06 04:53:42;;;;;;;6.93;2.65;;;;;;;;;;2080940;28;20025;-80
2023/01/06 04:55:01;;;;;;;4.10;2.10;;;;;;;;;;2088167;28;20036;-80
2023/01/06 04:56:20;;;;;;;7.30;1.95;;;;;;;;;;2092658;28;20028;-80
2023/01/06 04:57:39;;;;;;;2.50;1.90;;;;;;;;;;2080983;28;20072;-79
2023/01/06 04:58:58;;;;;;;9.20;2.78;;;;;;;;;;2085895;28;20445;-79
2023/01/06 05:00:17;;;;;;;3.50;2.13;;;;;;;;;;2088308;28;20115;-80
2023/01/06 05:01:36;;;;;;;6.63;1.83;;;;;;;;;;2085019;28;20029;-80
2023/01/06 05:02:55;;;;;;;4.75;2.22;;;;;;;;;;2082224;28;20517;-80
2023/01/06 05:04:14;;;;;;;5.70;2.22;;;;;;;;;;2084951;28;20107;-80
2023/01/06 05:05:33;;;;;;;6.93;2.30;;;;;;;;;;2081887;28;20029;-80
2023/01/06 05:06:52;;;;;;;4.95;1.90;;;;;;;;;;2085865;28;20588;-80
2023/01/06 05:08:10;;;;;;;4.75;1.95;;;;;;;;;;2084568;28;20037;-79
2023/01/06 05:09:29;;;;;;;4.97;1.92;;;;;;;;;;2084724;28;20049;-80
2023/01/06 05:10:48;;;;;;;4.78;1.95;;;;;;;;;;2084297;28;20029;-79
2023/01/06 05:12:07;;;;;;;4.57;2.40;;;;;;;;;;2089368;28;20025;-80
2023/01/06 05:13:26;;;;;;;4.03;2.10;;;;;;;;;;2085610;28;20535;-79
2023/01/06 05:14:45;;;;;;;5.07;1.92;;;;;;;;;;2080742;28;20030;-80
2023/01/06 05:16:08;;;;;;;5.68;1.83;;;;;;;;;;2090213;28;20036;-79
2023/01/06 05:17:27;;;;;;;5.03;2.03;;;;;;;;;;2092244;28;20423;-80
2023/01/06 05:18:46;;;;;;;5.10;1.85;;;;;;;;;;2080372;28;20033;-80
2023/01/06 05:20:05;;;;;;;4.40;1.90;;;;;;;;;;2087746;28;20032;-81
2023/01/06 05:21:25;;;;;;;4.13;2.10;;;;;;;;;;2087731;28;20065;-80
2023/01/06 05:22:44;;;;;;;5.72;2.22;;;;;;;;;;2082608;28;20029;-80
2023/01/06 05:24:03;;;;;;;4.57;1.90;;;;;;;;;;2085470;28;20033;-79
2023/01/06 05:25:22;;;;;;;2.90;2.00;;;;;;;;;;2087042;28;20032;-80
2023/01/06 05:26:41;;;;;;;4.63;1.98;;;;;;;;;;2086591;28;20033;-79
2023/01/06 05:28:00;;;;;;;8.65;2.25;;;;;;;;;;2084967;28;20025;-80
2023/01/06 05:29:19;;;;;;;5.70;2.22;;;;;;;;;;2089303;28;20040;-80
2023/01/06 05:30:38;;;;;;;4.88;2.28;;;;;;;;;;2083103;28;20423;-80
2023/01/06 05:31:57;;;;;;;5.10;2.25;;;;;;;;;;2087493;28;20540;-79
2023/01/06 05:33:16;;;;;;;3.30;1.98;;;;;;;;;;2087558;28;20033;-80
2023/01/06 05:34:35;;;;;;;2.97;2.25;;;;;;;;;;2094688;28;20431;-81
2023/01/06 05:35:58;;;;;;;5.93;2.08;;;;;;;;;;2088768;28;20120;-80
2023/01/06 05:37:17;;;;;;;3.83;2.17;;;;;;;;;;2095383;28;20397;-80
2023/01/06 05:38:36;;;;;;;4.95;1.80;;;;;;;;;;2095360;28;20029;-80
2023/01/06 05:39:55;;;;;;;3.45;1.95;;;;;;;;;;2089832;28;20032;-80
2023/01/06 05:41:14;;;;;;;4.88;2.38;;;;;;;;;;2093300;28;20497;-80
2023/01/06 05:42:33;;;;;;;5.53;2.42;;;;;;;;;;2090055;28;20029;-82
2023/01/06 05:43:52;;;;;;;4.03;2.33;;;;;;;;;;2085736;28;20033;-82
2023/01/06 05:45:11;;;;;;;8.18;2.17;;;;;;;;;;2084480;28;20474;-81
2023/01/06 05:46:30;;;;;;;4.22;2.08;;;;;;;;;;2092399;28;20037;-82
2023/01/06 05:47:49;;;;;;;5.15;2.53;;;;;;;;;;2091060;28;20047;-82
2023/01/06 05:49:08;;;;;;;7.13;2.15;;;;;;;;;;2094082;28;20029;-81
2023/01/06 05:50:27;;;;;;;5.57;2.38;;;;;;;;;;2090125;28;20478;-82
2023/01/06 05:51:47;;;;;;;4.15;2.10;;;;;;;;;;2084713;28;20027;-82
2023/01/06 05:53:06;;;;;;;5.85;2.38;;;;;;;;;;2093597;28;20560;-82
2023/01/06 05:54:25;;;;;;;5.60;2.13;;;;;;;;;;2090849;28;20037;-82
2023/01/06 05:55:43;;;;;;;3.78;2.20;;;;;;;;;;2093955;28;20024;-81
2023/01/06 05:57:02;;;;;;;4.55;1.80;;;;;;;;;;2089732;28;20021;-82
2023/01/06 05:58:21;;;;;;;4.10;2.08;;;;;;;;;;2084764;28;20026;-82
2023/01/06 05:59:40;;;;;;;5.55;2.03;;;;;;;;;;2094606;28;20056;-83
2023/01/06 06:01:00;;;;;;;3.97;2.30;;;;;;;;;;2088739;28;20064;-82
2023/01/06 06:02:19;;;;;;;2.72;2.00;;;;;;;;;;2085078;28;20033;-82
2023/01/06 06:03:37;;;;;;;2.65;1.90;;;;;;;;;;2092564;28;20020;-81
2023/01/06 06:04:56;;;;;;;6.28;2.00;;;;;;;;;;2095595;28;20017;-81
2023/01/06 06:06:16;;;;;;;1.85;1.70;;;;;;;;;;2088399;28;20033;-81
2023/01/06 06:07:36;;;;;;;4.88;1.98;;;;;;;;;;2086167;28;20048;-80
2023/01/06 06:08:56;;;;;;;4.43;1.83;;;;;;;;;;2088503;28;20058;-82
2023/01/06 06:10:15;;;;;;;5.57;1.90;;;;;;;;;;2093063;28;20036;-81
2023/01/06 06:11:34;;;;;;;4.60;1.65;;;;;;;;;;2092691;28;20040;-81
2023/01/06 06:12:53;;;;;;;3.75;1.88;;;;;;;;;;2085908;28;20398;-80
2023/01/06 06:14:12;;;;;;;2.33;1.67;;;;;;;;;;2086707;28;20545;-81
2023/01/06 06:15:30;;;;;;;5.85;1.65;;;;;;;;;;2084998;28;20026;-81
2023/01/06 06:16:49;;;;;;;3.33;1.73;;;;;;;;;;2085990;28;20029;-81
2023/01/06 06:18:08;;;;;;;2.25;1.52;;;;;;;;;;2092349;28;20036;-84
2023/01/06 06:19:27;;;;;;;3.70;1.85;;;;;;;;;;2087555;28;20021;-81
2023/01/06 06:20:46;;;;;;;2.63;1.60;;;;;;;;;;2085477;28;20034;-81
2023/01/06 06:22:05;;;;;;;4.85;2.03;;;;;;;;;;2087489;28;20025;-81
2023/01/06 06:23:24;;;;;;;8.32;3.38;;;;;;;;;;2095392;28;20493;-81
2023/01/06 06:24:43;;;;;;;5.75;3.50;;;;;;;;;;2096005;28;20024;-82
2023/01/06 06:26:02;;;;;;;5.57;2.13;;;;;;;;;;2093397;28;20032;-81
2023/01/06 06:27:21;;;;;;;5.28;2.13;;;;;;;;;;2095247;28;20054;-81
2023/01/06 06:28:41;;;;;;;5.47;2.03;;;;;;;;;;2089822;28;20210;-82
2023/01/06 06:30:00;;;;;;;3.10;1.58;;;;;;;;;;2085069;28;20025;-82
2023/01/06 06:31:21;;;;;;;6.25;2.30;;;;;;;;;;2087528;28;20029;-82
2023/01/06 06:32:40;;;;;;;4.38;1.90;;;;;;;;;;2085028;28;20029;-80
2023/01/06 06:34:00;;;;;;;3.83;2.10;;;;;;;;;;2083460;28;20026;-83
2023/01/06 06:35:19;;;;;;;5.85;2.13;;;;;;;;;;2090445;28;20037;-82
2023/01/06 06:36:38;;;;;;;6.57;2.42;;;;;;;;;;2089744;28;20060;-81
2023/01/06 06:37:57;;;;;;;5.60;2.50;;;;;;;;;;2093663;28;20040;-83
2023/01/06 06:39:16;;;;;;;4.50;2.42;;;;;;;;;;2087208;28;20029;-82
2023/01/06 06:40:34;;;;;;;2.80;2.28;;;;;;;;;;2080544;28;20625;-81
2023/01/06 06:41:53;;;;;;;3.45;1.98;;;;;;;;;;2086991;28;20041;-83
2023/01/06 06:43:12;;;;;;;13.30;2.20;;;;;;;;;;2088404;28;20029;-83
2023/01/06 06:44:31;;;;;;;7.60;2.28;;;;;;;;;;2081498;28;20033;-83
2023/01/06 06:45:50;;;;;;;4.35;2.03;;;;;;;;;;2085532;28;20039;-82
2023/01/06 06:47:09;;;;;;;7.25;3.00;;;;;;;;;;2091816;28;20025;-81
2023/01/06 06:48:28;;;;;;;6.55;2.22;;;;;;;;;;2095275;28;20025;-84
2023/01/06 06:49:47;;;;;;;3.65;2.38;;;;;;;;;;2088960;28;20029;-84
2023/01/06 06:51:07;;;;;;;8.00;3.28;;;;;;;;;;2089896;28;20501;-83
2023/01/06 06:52:26;;;;;;;7.88;2.90;;;;;;;;;;2091371;28;20044;-83
2023/01/06 06:53:45;;;;;;;4.13;2.65;;;;;;;;;;2083490;28;20033;-80
2023/01/06 06:55:07;;;;;;;2.40;2.20;;;;;;;;;;2081243;28;20032;-82
2023/01/06 06:56:26;;;;;;;4.97;2.88;;;;;;;;;;2088664;28;20441;-81
2023/01/06 06:57:45;;;;;;;5.00;2.25;;;;;;;;;;2086145;28;20513;-82
2023/01/06 06:59:04;;;;;;;5.60;2.22;;;;;;;;;;2083273;28;20112;-81
2023/01/06 07:00:23;;;;;;;3.88;2.33;;;;;;;;;;2081452;28;20029;-81
2023/01/06 07:01:42;;;;;;;5.75;2.72;;;;;;;;;;2089949;28;20036;-83
2023/01/06 07:03:01;;;;;;;6.82;2.78;;;;;;;;;;2087566;28;20037;-81
2023/01/06 07:04:20;;;;;;;4.22;2.80;;;;;;;;;;2083138;28;20029;-84
2023/01/06 07:05:43;;;;;;;6.35;2.45;;;;;;;;;;2084693;28;20059;-82
2023/01/06 07:07:02;;;;;;;;;;;;;;;;;;2084359;28;20632;-84
2023/01/06 07:08:22;;;;;;;4.82;2.47;;;;;;;;;;2084931;28;20007;-84
2023/01/06 07:09:41;;;;;;;6.18;2.40;;;;;;;;;;2091457;28;20099;-84
2023/01/06 07:11:00;;;;;;;5.85;2.83;;;;;;;;;;2092607;28;20040;-80
2023/01/06 07:12:18;;;;;;;5.40;2.85;;;;;;;;;;2094545;28;20032;-81
2023/01/06 07:13:38;;;;;;;7.55;2.70;;;;;;;;;;2085156;28;20026;-81
2023/01/06 07:14:57;;;;;;;5.63;2.45;;;;;;;;;;2090154;28;20036;-83
2023/01/06 07:16:16;;;;;;;4.18;2.22;;;;;;;;;;2092371;28;20452;-80
2023/01/06 07:17:34;;;;;;;5.28;2.38;;;;;;;;;;2093409;28;20029;-81
2023/01/06 07:18:53;;;;;;;25.35;12.70;;;;;;;;;;2094819;28;20052;-79
2023/01/06 07:20:12;;;;;;;8.45;2.65;;;;;;;;;;2093580;28;20050;-81
2023/01/06 07:21:31;;;;;;;7.55;2.70;;;;;;;;;;2085289;28;20481;-84
2023/01/06 07:22:50;;;;;;;10.05;4.88;;;;;;;;;;2088413;28;20093;-84
2023/01/06 07:24:09;;;;;;;7.85;3.25;;;;;;;;;;2084743;28;20037;-82
2023/01/06 07:25:28;;;;;;;4.47;2.55;;;;;;;;;;2090061;28;20028;-81
2023/01/06 07:26:47;;;;;;;3.70;2.25;;;;;;;;;;2093773;28;20040;-83
2023/01/06 07:28:08;;;;;;;37.50;19.67;;;;;;;;;;2088186;28;20037;-81
2023/01/06 07:29:26;;;;;;;9.32;2.58;;;;;;;;;;2086787;28;20478;-82
2023/01/06 07:30:45;;;;;;;5.35;2.92;;;;;;;;;;2090884;28;20028;-83
2023/01/06 07:32:05;;;;;;;5.78;3.08;;;;;;;;;;2088711;28;20033;-82
2023/01/06 07:33:24;;;;;;;9.48;3.40;;;;;;;;;;2083073;28;20025;-82
2023/01/06 07:34:42;;;;;;;5.65;2.35;;;;;;;;;;2089937;28;20482;-81
2023/01/06 07:36:02;;;;;;;7.40;2.47;;;;;;;;;;2094660;28;20091;-82
2023/01/06 07:37:21;;;;;;;5.95;2.70;;;;;;;;;;2086996;28;20037;-80
2023/01/06 07:38:40;;;;;;;3.88;2.28;;;;;;;;;;2092130;28;20041;-80
2023/01/06 07:39:59;;;;;;;5.55;2.17;;;;;;;;;;2093755;28;20037;-81
2023/01/06 07:41:17;;;;;;;7.07;2.47;;;;;;;;;;2094301;28;20050;-82
2023/01/06 07:42:37;;;;;;;6.18;2.00;;;;;;;;;;2086681;28;20036;-82
2023/01/06 07:43:55;;;;;;;4.85;2.25;;;;;;;;;;2081195;28;20049;-81
2023/01/06 07:45:15;;;;;;;4.22;2.00;;;;;;;;;;2082228;28;20048;-81
2023/01/06 07:46:34;;;;;;;2.45;1.75;;;;;;;;;;2090212;28;20024;-81
2023/01/06 07:47:54;;;;;;;3.50;1.90;;;;;;;;;;2092117;28;20037;-79
2023/01/06 07:49:24;;;;;;;2.97;2.05;;;;;;;;;;2085818;28;20103;-83
2023/01/06 07:50:43;;;;;;;22.75;8.98;;;;;;;;;;2087280;28;20021;-83
2023/01/06 07:52:02;;;;;;;8.15;4.10;;;;;;;;;;2085567;28;20025;-80
2023/01/06 07:53:21;;;;;;;10.60;5.05;;;;;;;;;;2089021;28;20151;-81
2023/01/06 07:54:40;;;;;;;5.43;2.40;;;;;;;;;;2082350;28;20029;-80
2023/01/06 07:55:59;;;;;;;3.42;2.17;;;;;;;;;;2087679;28;20025;-80
2023/01/06 07:57:18;;;;;;;8.45;2.80;;;;;;;;;;2092545;28;20025;-80
2023/01/06 07:58:37;;;;;;;4.07;2.70;;;;;;;;;;2085131;28;20037;-80
2023/01/06 07:59:56;;;;;;;4.10;3.25;;;;;;;;;;2091059;28;20040;-82
2023/01/06 08:01:14;;;;;;;6.20;2.45;;;;;;;;;;2090858;28;20083;-81
2023/01/06 08:02:33;;;;;;;5.82;2.45;;;;;;;;;;2084931;28;20029;-80
2023/01/06 08:03:53;;;;;;;4.75;2.17;;;;;;;;;;2089846;28;20053;-79
2023/01/06 08:05:11;;;;;;;4.15;2.28;;;;;;;;;;2092590;28;20025;-81
2023/01/06 08:06:30;;;;;;;1.92;1.70;;;;;;;;;;2093371;28;20029;-81
2023/01/06 08:07:49;;;;;;;5.43;2.75;;;;;;;;;;2080527;28;20033;-80
2023/01/06 08:09:08;;;;;;;3.67;2.33;;;;;;;;;;2081318;28;20029;-82
2023/01/06 08:10:27;;;;;;;4.63;2.40;;;;;;;;;;2084936;28;20109;-82